sensor_id;sensor_type;location;lat;lon;timestamp;P1;durP1;ratioP1;P2;durP2;ratioP2
2338;SDS011;1180;51.438;6.978;2023-05-10T00:00:50;6.63;;;5.40;;
2338;SDS011;1180;51.438;6.978;2023-05-10T00:03:16;6.90;;;6.20;;
2338;SDS011;1180;51.438;6.978;2023-05-10T00:05:41;7.80;;;6.57;;
2338;SDS011;1180;51.438;6.978;2023-05-10T00:08:07;7.00;;;6.30;;
2338;SDS011;1180;51.438;6.978;2023-05-10T00:10:32;6.67;;;5.97;;
2338;SDS011;1180;51.438;6.978;2023-05-10T00:12:58;8.23;;;6.37;;
2338;SDS011;1180;51.438;6.978;2023-05-10T00:15:23;6.90;;;6.20;;
2338;SDS011;1180;51.438;6.978;2023-05-10T00:17:48;7.47;;;6.73;;
2338;SDS011;1180;51.438;6.978;2023-05-10T00:20:13;7.93;;;7.13;;
2338;SDS011;1180;51.438;6.978;2023-05-10T00:22:39;7.70;;;6.57;;
2338;SDS011;1180;51.438;6.978;2023-05-10T00:25:04;8.67;;;7.73;;
2338;SDS011;1180;51.438;6.978;2023-05-10T00:27:31;8.53;;;7.70;;
2338;SDS011;1180;51.438;6.978;2023-05-10T00:29:56;8.73;;;7.03;;
2338;SDS011;1180;51.438;6.978;2023-05-10T00:32:21;7.93;;;6.80;;
2338;SDS011;1180;51.438;6.978;2023-05-10T00:34:47;8.00;;;6.87;;
2338;SDS011;1180;51.438;6.978;2023-05-10T00:37:12;9.33;;;7.50;;
2338;SDS011;1180;51.438;6.978;2023-05-10T00:39:37;8.20;;;7.40;;
2338;SDS011;1180;51.438;6.978;2023-05-10T00:42:03;9.30;;;8.30;;
2338;SDS011;1180;51.438;6.978;2023-05-10T00:44:29;8.97;;;8.07;;
2338;SDS011;1180;51.438;6.978;2023-05-10T00:46:55;8.87;;;7.97;;
2338;SDS011;1180;51.438;6.978;2023-05-10T00:49:21;12.20;;;11.00;;
2338;SDS011;1180;51.438;6.978;2023-05-10T00:51:47;11.50;;;10.40;;
2338;SDS011;1180;51.438;6.978;2023-05-10T00:54:12;12.73;;;10.63;;
2338;SDS011;1180;51.438;6.978;2023-05-10T00:56:40;11.77;;;10.50;;
2338;SDS011;1180;51.438;6.978;2023-05-10T00:59:06;13.30;;;10.37;;
2338;SDS011;1180;51.438;6.978;2023-05-10T01:01:33;13.53;;;10.27;;
2338;SDS011;1180;51.438;6.978;2023-05-10T01:03:58;13.70;;;12.00;;
2338;SDS011;1180;51.438;6.978;2023-05-10T01:06:24;16.40;;;12.83;;
2338;SDS011;1180;51.438;6.978;2023-05-10T01:08:49;14.50;;;12.80;;
2338;SDS011;1180;51.438;6.978;2023-05-10T01:11:15;15.50;;;11.93;;
2338;SDS011;1180;51.438;6.978;2023-05-10T01:13:40;15.53;;;12.73;;
2338;SDS011;1180;51.438;6.978;2023-05-10T01:16:08;16.70;;;13.60;;
2338;SDS011;1180;51.438;6.978;2023-05-10T01:18:38;17.63;;;13.43;;
2338;SDS011;1180;51.438;6.978;2023-05-10T01:29:19;19.67;;;14.10;;
2338;SDS011;1180;51.438;6.978;2023-05-10T01:34:36;18.00;;;13.70;;
2338;SDS011;1180;51.438;6.978;2023-05-10T01:37:42;16.93;;;13.93;;
2338;SDS011;1180;51.438;6.978;2023-05-10T01:40:17;15.60;;;13.70;;
2338;SDS011;1180;51.438;6.978;2023-05-10T01:42:52;20.17;;;14.73;;
2338;SDS011;1180;51.438;6.978;2023-05-10T01:45:24;17.93;;;13.53;;
2338;SDS011;1180;51.438;6.978;2023-05-10T01:48:03;15.97;;;12.63;;
2338;SDS011;1180;51.438;6.978;2023-05-10T01:50:32;17.07;;;12.50;;
2338;SDS011;1180;51.438;6.978;2023-05-10T01:53:00;15.80;;;12.43;;
2338;SDS011;1180;51.438;6.978;2023-05-10T01:55:28;14.00;;;11.03;;
2338;SDS011;1180;51.438;6.978;2023-05-10T01:58:04;12.83;;;10.90;;
2338;SDS011;1180;51.438;6.978;2023-05-10T02:00:34;14.87;;;11.57;;
2338;SDS011;1180;51.438;6.978;2023-05-10T02:03:01;13.47;;;11.37;;
2338;SDS011;1180;51.438;6.978;2023-05-10T02:05:30;12.40;;;11.10;;
2338;SDS011;1180;51.438;6.978;2023-05-10T02:07:58;14.90;;;10.63;;
2338;SDS011;1180;51.438;6.978;2023-05-10T02:10:25;13.03;;;10.40;;
2338;SDS011;1180;51.438;6.978;2023-05-10T02:12:51;13.50;;;11.20;;
2338;SDS011;1180;51.438;6.978;2023-05-10T02:15:21;14.17;;;12.40;;
2338;SDS011;1180;51.438;6.978;2023-05-10T02:17:48;12.90;;;11.40;;
2338;SDS011;1180;51.438;6.978;2023-05-10T02:20:14;14.00;;;11.67;;
2338;SDS011;1180;51.438;6.978;2023-05-10T02:22:41;12.27;;;10.40;;
2338;SDS011;1180;51.438;6.978;2023-05-10T02:25:07;13.90;;;12.47;;
2338;SDS011;1180;51.438;6.978;2023-05-10T02:27:34;14.33;;;11.63;;
2338;SDS011;1180;51.438;6.978;2023-05-10T02:30:01;15.03;;;11.30;;
2338;SDS011;1180;51.438;6.978;2023-05-10T02:32:27;13.27;;;10.63;;
2338;SDS011;1180;51.438;6.978;2023-05-10T02:34:54;15.77;;;12.13;;
2338;SDS011;1180;51.438;6.978;2023-05-10T02:37:21;13.47;;;10.30;;
2338;SDS011;1180;51.438;6.978;2023-05-10T02:39:47;14.07;;;11.30;;
2338;SDS011;1180;51.438;6.978;2023-05-10T02:42:18;15.93;;;12.00;;
2338;SDS011;1180;51.438;6.978;2023-05-10T02:44:47;12.90;;;10.10;;
2338;SDS011;1180;51.438;6.978;2023-05-10T02:47:14;12.47;;;10.53;;
2338;SDS011;1180;51.438;6.978;2023-05-10T02:49:39;13.33;;;11.63;;
2338;SDS011;1180;51.438;6.978;2023-05-10T02:52:05;16.57;;;13.23;;
2338;SDS011;1180;51.438;6.978;2023-05-10T02:54:34;13.10;;;11.13;;
2338;SDS011;1180;51.438;6.978;2023-05-10T02:57:06;14.83;;;11.83;;
2338;SDS011;1180;51.438;6.978;2023-05-10T02:59:34;15.90;;;13.80;;
2338;SDS011;1180;51.438;6.978;2023-05-10T03:02:00;15.97;;;13.23;;
2338;SDS011;1180;51.438;6.978;2023-05-10T03:04:26;14.00;;;11.40;;
2338;SDS011;1180;51.438;6.978;2023-05-10T03:06:52;14.60;;;10.60;;
2338;SDS011;1180;51.438;6.978;2023-05-10T03:09:17;11.47;;;9.70;;
2338;SDS011;1180;51.438;6.978;2023-05-10T03:17:32;10.23;;;9.13;;
2338;SDS011;1180;51.438;6.978;2023-05-10T03:20:10;14.53;;;10.07;;
2338;SDS011;1180;51.438;6.978;2023-05-10T03:22:38;11.20;;;9.30;;
2338;SDS011;1180;51.438;6.978;2023-05-10T03:25:12;16.77;;;10.50;;
2338;SDS011;1180;51.438;6.978;2023-05-10T03:27:41;13.67;;;10.70;;
2338;SDS011;1180;51.438;6.978;2023-05-10T03:30:08;13.37;;;10.33;;
2338;SDS011;1180;51.438;6.978;2023-05-10T03:32:36;15.20;;;11.50;;
2338;SDS011;1180;51.438;6.978;2023-05-10T03:35:08;14.57;;;12.00;;
2338;SDS011;1180;51.438;6.978;2023-05-10T03:37:35;14.60;;;11.40;;
2338;SDS011;1180;51.438;6.978;2023-05-10T03:40:01;14.40;;;10.73;;
2338;SDS011;1180;51.438;6.978;2023-05-10T03:42:27;15.30;;;10.87;;
2338;SDS011;1180;51.438;6.978;2023-05-10T03:44:52;13.00;;;10.80;;
2338;SDS011;1180;51.438;6.978;2023-05-10T03:47:18;12.83;;;11.27;;
2338;SDS011;1180;51.438;6.978;2023-05-10T03:49:43;14.73;;;12.20;;
2338;SDS011;1180;51.438;6.978;2023-05-10T03:52:08;15.33;;;12.10;;
2338;SDS011;1180;51.438;6.978;2023-05-10T03:54:34;15.13;;;13.13;;
2338;SDS011;1180;51.438;6.978;2023-05-10T03:56:59;14.47;;;11.57;;
2338;SDS011;1180;51.438;6.978;2023-05-10T03:59:25;13.60;;;12.20;;
2338;SDS011;1180;51.438;6.978;2023-05-10T04:01:51;16.57;;;14.80;;
2338;SDS011;1180;51.438;6.978;2023-05-10T04:04:16;16.90;;;14.70;;
2338;SDS011;1180;51.438;6.978;2023-05-10T04:06:43;18.30;;;14.27;;
2338;SDS011;1180;51.438;6.978;2023-05-10T04:09:09;19.10;;;15.13;;
2338;SDS011;1180;51.438;6.978;2023-05-10T04:11:35;19.33;;;14.30;;
2338;SDS011;1180;51.438;6.978;2023-05-10T04:14:01;17.73;;;14.37;;
2338;SDS011;1180;51.438;6.978;2023-05-10T04:16:26;21.57;;;16.47;;
2338;SDS011;1180;51.438;6.978;2023-05-10T04:18:52;22.80;;;16.43;;
2338;SDS011;1180;51.438;6.978;2023-05-10T04:21:18;19.57;;;16.77;;
2338;SDS011;1180;51.438;6.978;2023-05-10T04:23:43;19.43;;;15.57;;
2338;SDS011;1180;51.438;6.978;2023-05-10T04:26:08;23.50;;;17.23;;
2338;SDS011;1180;51.438;6.978;2023-05-10T04:28:34;21.07;;;16.63;;
2338;SDS011;1180;51.438;6.978;2023-05-10T04:31:03;24.00;;;17.83;;
2338;SDS011;1180;51.438;6.978;2023-05-10T04:33:33;21.67;;;17.50;;
2338;SDS011;1180;51.438;6.978;2023-05-10T04:35:59;21.00;;;16.63;;
2338;SDS011;1180;51.438;6.978;2023-05-10T04:38:24;24.13;;;18.70;;
2338;SDS011;1180;51.438;6.978;2023-05-10T04:40:50;21.70;;;17.43;;
2338;SDS011;1180;51.438;6.978;2023-05-10T04:43:15;25.70;;;19.57;;
2338;SDS011;1180;51.438;6.978;2023-05-10T04:45:40;23.83;;;17.83;;
2338;SDS011;1180;51.438;6.978;2023-05-10T04:48:06;21.80;;;17.67;;
2338;SDS011;1180;51.438;6.978;2023-05-10T04:50:32;23.27;;;18.77;;
2338;SDS011;1180;51.438;6.978;2023-05-10T04:52:57;23.73;;;18.27;;
2338;SDS011;1180;51.438;6.978;2023-05-10T04:55:23;22.00;;;16.87;;
2338;SDS011;1180;51.438;6.978;2023-05-10T04:57:48;24.60;;;17.77;;
2338;SDS011;1180;51.438;6.978;2023-05-10T05:00:14;25.23;;;18.83;;
2338;SDS011;1180;51.438;6.978;2023-05-10T05:02:43;24.70;;;18.57;;
2338;SDS011;1180;51.438;6.978;2023-05-10T05:05:10;24.63;;;19.40;;
2338;SDS011;1180;51.438;6.978;2023-05-10T05:07:35;24.53;;;19.07;;
2338;SDS011;1180;51.438;6.978;2023-05-10T05:10:01;23.27;;;17.77;;
2338;SDS011;1180;51.438;6.978;2023-05-10T05:12:26;24.23;;;18.40;;
2338;SDS011;1180;51.438;6.978;2023-05-10T05:14:51;24.47;;;17.37;;
2338;SDS011;1180;51.438;6.978;2023-05-10T05:17:17;22.33;;;18.77;;
2338;SDS011;1180;51.438;6.978;2023-05-10T05:19:42;23.60;;;18.53;;
2338;SDS011;1180;51.438;6.978;2023-05-10T05:22:07;27.90;;;19.87;;
2338;SDS011;1180;51.438;6.978;2023-05-10T05:24:36;26.60;;;20.53;;
2338;SDS011;1180;51.438;6.978;2023-05-10T05:27:03;28.63;;;21.70;;
2338;SDS011;1180;51.438;6.978;2023-05-10T05:29:28;28.43;;;21.43;;
2338;SDS011;1180;51.438;6.978;2023-05-10T05:31:54;25.60;;;21.00;;
2338;SDS011;1180;51.438;6.978;2023-05-10T05:34:19;25.00;;;20.50;;
2338;SDS011;1180;51.438;6.978;2023-05-10T05:36:45;24.90;;;19.37;;
2338;SDS011;1180;51.438;6.978;2023-05-10T05:39:10;28.90;;;21.10;;
2338;SDS011;1180;51.438;6.978;2023-05-10T05:41:36;25.77;;;20.10;;
2338;SDS011;1180;51.438;6.978;2023-05-10T05:44:01;27.47;;;20.63;;
2338;SDS011;1180;51.438;6.978;2023-05-10T05:46:27;26.40;;;19.50;;
2338;SDS011;1180;51.438;6.978;2023-05-10T05:48:52;24.07;;;18.50;;
2338;SDS011;1180;51.438;6.978;2023-05-10T05:51:17;27.97;;;18.87;;
2338;SDS011;1180;51.438;6.978;2023-05-10T05:53:43;27.20;;;21.33;;
2338;SDS011;1180;51.438;6.978;2023-05-10T05:56:08;26.60;;;18.03;;
2338;SDS011;1180;51.438;6.978;2023-05-10T05:58:34;27.40;;;19.90;;
2338;SDS011;1180;51.438;6.978;2023-05-10T06:01:00;26.40;;;18.50;;
2338;SDS011;1180;51.438;6.978;2023-05-10T06:03:26;24.87;;;18.70;;
2338;SDS011;1180;51.438;6.978;2023-05-10T06:05:51;24.50;;;19.33;;
2338;SDS011;1180;51.438;6.978;2023-05-10T06:08:16;30.40;;;21.37;;
2338;SDS011;1180;51.438;6.978;2023-05-10T06:10:42;27.93;;;19.30;;
2338;SDS011;1180;51.438;6.978;2023-05-10T06:13:07;29.23;;;19.47;;
2338;SDS011;1180;51.438;6.978;2023-05-10T06:15:33;25.53;;;19.07;;
2338;SDS011;1180;51.438;6.978;2023-05-10T06:17:59;26.33;;;20.27;;
2338;SDS011;1180;51.438;6.978;2023-05-10T06:20:25;25.70;;;20.03;;
2338;SDS011;1180;51.438;6.978;2023-05-10T06:22:50;25.53;;;17.57;;
2338;SDS011;1180;51.438;6.978;2023-05-10T06:25:15;27.40;;;19.90;;
2338;SDS011;1180;51.438;6.978;2023-05-10T06:27:42;30.00;;;21.03;;
2338;SDS011;1180;51.438;6.978;2023-05-10T06:30:08;25.47;;;18.00;;
2338;SDS011;1180;51.438;6.978;2023-05-10T06:32:34;27.03;;;19.23;;
2338;SDS011;1180;51.438;6.978;2023-05-10T06:34:59;29.80;;;19.53;;
2338;SDS011;1180;51.438;6.978;2023-05-10T06:37:25;28.00;;;20.37;;
2338;SDS011;1180;51.438;6.978;2023-05-10T06:39:50;29.90;;;19.93;;
2338;SDS011;1180;51.438;6.978;2023-05-10T06:42:16;27.70;;;18.60;;
2338;SDS011;1180;51.438;6.978;2023-05-10T06:44:41;31.90;;;21.87;;
2338;SDS011;1180;51.438;6.978;2023-05-10T06:47:06;36.40;;;22.90;;
2338;SDS011;1180;51.438;6.978;2023-05-10T06:49:32;38.70;;;24.20;;
2338;SDS011;1180;51.438;6.978;2023-05-10T06:51:57;35.73;;;22.90;;
2338;SDS011;1180;51.438;6.978;2023-05-10T06:54:22;36.00;;;24.73;;
2338;SDS011;1180;51.438;6.978;2023-05-10T06:56:48;33.70;;;20.73;;
2338;SDS011;1180;51.438;6.978;2023-05-10T06:59:13;37.57;;;23.77;;
2338;SDS011;1180;51.438;6.978;2023-05-10T07:01:40;35.43;;;23.87;;
2338;SDS011;1180;51.438;6.978;2023-05-10T07:04:05;36.43;;;23.27;;
2338;SDS011;1180;51.438;6.978;2023-05-10T07:06:32;34.57;;;23.13;;
2338;SDS011;1180;51.438;6.978;2023-05-10T07:08:58;32.80;;;21.30;;
2338;SDS011;1180;51.438;6.978;2023-05-10T07:11:24;38.90;;;23.57;;
2338;SDS011;1180;51.438;6.978;2023-05-10T07:13:49;37.83;;;22.97;;
2338;SDS011;1180;51.438;6.978;2023-05-10T07:16:14;35.00;;;22.90;;
2338;SDS011;1180;51.438;6.978;2023-05-10T07:18:40;30.70;;;21.33;;
2338;SDS011;1180;51.438;6.978;2023-05-10T07:21:05;33.23;;;22.90;;
2338;SDS011;1180;51.438;6.978;2023-05-10T07:23:31;32.17;;;20.73;;
2338;SDS011;1180;51.438;6.978;2023-05-10T07:25:56;37.20;;;21.60;;
2338;SDS011;1180;51.438;6.978;2023-05-10T07:28:22;27.57;;;21.23;;
2338;SDS011;1180;51.438;6.978;2023-05-10T07:30:49;31.63;;;22.17;;
2338;SDS011;1180;51.438;6.978;2023-05-10T07:33:14;31.20;;;21.27;;
2338;SDS011;1180;51.438;6.978;2023-05-10T07:35:42;34.97;;;22.47;;
2338;SDS011;1180;51.438;6.978;2023-05-10T07:38:07;29.43;;;19.80;;
2338;SDS011;1180;51.438;6.978;2023-05-10T07:40:33;30.50;;;20.80;;
2338;SDS011;1180;51.438;6.978;2023-05-10T07:42:58;33.47;;;23.20;;
2338;SDS011;1180;51.438;6.978;2023-05-10T07:45:25;28.80;;;21.23;;
2338;SDS011;1180;51.438;6.978;2023-05-10T07:47:51;34.67;;;21.70;;
2338;SDS011;1180;51.438;6.978;2023-05-10T07:50:16;28.40;;;20.97;;
2338;SDS011;1180;51.438;6.978;2023-05-10T07:52:42;29.00;;;21.30;;
2338;SDS011;1180;51.438;6.978;2023-05-10T07:55:07;33.13;;;19.90;;
2338;SDS011;1180;51.438;6.978;2023-05-10T07:57:33;30.87;;;19.57;;
2338;SDS011;1180;51.438;6.978;2023-05-10T07:59:59;30.00;;;20.90;;
2338;SDS011;1180;51.438;6.978;2023-05-10T08:02:25;32.57;;;20.43;;
2338;SDS011;1180;51.438;6.978;2023-05-10T08:04:50;31.00;;;20.37;;
2338;SDS011;1180;51.438;6.978;2023-05-10T08:07:16;31.30;;;19.40;;
2338;SDS011;1180;51.438;6.978;2023-05-10T08:09:41;27.90;;;18.30;;
2338;SDS011;1180;51.438;6.978;2023-05-10T08:12:08;27.03;;;17.00;;
2338;SDS011;1180;51.438;6.978;2023-05-10T08:14:33;23.10;;;16.57;;
2338;SDS011;1180;51.438;6.978;2023-05-10T08:16:59;22.23;;;15.70;;
2338;SDS011;1180;51.438;6.978;2023-05-10T08:19:24;20.13;;;15.73;;
2338;SDS011;1180;51.438;6.978;2023-05-10T08:21:50;22.97;;;15.07;;
2338;SDS011;1180;51.438;6.978;2023-05-10T08:24:15;24.53;;;16.40;;
2338;SDS011;1180;51.438;6.978;2023-05-10T08:26:41;24.73;;;15.70;;
2338;SDS011;1180;51.438;6.978;2023-05-10T08:29:06;25.70;;;16.87;;
2338;SDS011;1180;51.438;6.978;2023-05-10T08:31:31;27.03;;;16.77;;
2338;SDS011;1180;51.438;6.978;2023-05-10T08:33:57;24.30;;;17.57;;
2338;SDS011;1180;51.438;6.978;2023-05-10T08:36:22;23.70;;;16.60;;
2338;SDS011;1180;51.438;6.978;2023-05-10T08:38:52;25.33;;;15.97;;
2338;SDS011;1180;51.438;6.978;2023-05-10T08:41:21;25.73;;;17.20;;
2338;SDS011;1180;51.438;6.978;2023-05-10T08:43:49;23.77;;;18.73;;
2338;SDS011;1180;51.438;6.978;2023-05-10T08:46:16;24.80;;;17.37;;
2338;SDS011;1180;51.438;6.978;2023-05-10T08:48:44;26.70;;;16.50;;
2338;SDS011;1180;51.438;6.978;2023-05-10T08:51:12;22.40;;;16.73;;
2338;SDS011;1180;51.438;6.978;2023-05-10T08:53:40;21.63;;;15.97;;
2338;SDS011;1180;51.438;6.978;2023-05-10T08:56:06;20.20;;;14.13;;
2338;SDS011;1180;51.438;6.978;2023-05-10T08:58:31;20.30;;;14.23;;
2338;SDS011;1180;51.438;6.978;2023-05-10T09:00:57;24.87;;;15.67;;
2338;SDS011;1180;51.438;6.978;2023-05-10T09:03:24;21.60;;;15.33;;
2338;SDS011;1180;51.438;6.978;2023-05-10T09:05:49;22.30;;;15.00;;
2338;SDS011;1180;51.438;6.978;2023-05-10T09:08:14;26.37;;;18.50;;
2338;SDS011;1180;51.438;6.978;2023-05-10T09:10:41;29.93;;;18.37;;
2338;SDS011;1180;51.438;6.978;2023-05-10T09:13:08;28.27;;;18.80;;
2338;SDS011;1180;51.438;6.978;2023-05-10T09:15:35;26.93;;;19.20;;
2338;SDS011;1180;51.438;6.978;2023-05-10T09:18:00;27.50;;;17.90;;
2338;SDS011;1180;51.438;6.978;2023-05-10T09:20:27;27.47;;;19.10;;
2338;SDS011;1180;51.438;6.978;2023-05-10T09:22:53;33.70;;;20.40;;
2338;SDS011;1180;51.438;6.978;2023-05-10T09:25:18;30.47;;;21.83;;
2338;SDS011;1180;51.438;6.978;2023-05-10T09:27:45;31.23;;;22.10;;
2338;SDS011;1180;51.438;6.978;2023-05-10T09:30:30;33.70;;;19.90;;
2338;SDS011;1180;51.438;6.978;2023-05-10T09:32:56;29.30;;;20.27;;
2338;SDS011;1180;51.438;6.978;2023-05-10T09:35:23;32.40;;;20.77;;
2338;SDS011;1180;51.438;6.978;2023-05-10T09:37:51;26.00;;;19.20;;
2338;SDS011;1180;51.438;6.978;2023-05-10T09:40:21;34.30;;;19.97;;
2338;SDS011;1180;51.438;6.978;2023-05-10T09:42:51;30.40;;;19.90;;
2338;SDS011;1180;51.438;6.978;2023-05-10T09:45:17;24.57;;;17.00;;
2338;SDS011;1180;51.438;6.978;2023-05-10T09:47:42;25.13;;;18.33;;
2338;SDS011;1180;51.438;6.978;2023-05-10T09:50:09;28.90;;;18.60;;
2338;SDS011;1180;51.438;6.978;2023-05-10T09:52:50;25.80;;;16.70;;
2338;SDS011;1180;51.438;6.978;2023-05-10T09:55:38;29.83;;;18.33;;
2338;SDS011;1180;51.438;6.978;2023-05-10T09:58:04;19.57;;;14.97;;
2338;SDS011;1180;51.438;6.978;2023-05-10T10:00:35;20.77;;;15.27;;
2338;SDS011;1180;51.438;6.978;2023-05-10T10:03:04;20.07;;;15.80;;
2338;SDS011;1180;51.438;6.978;2023-05-10T10:05:30;22.90;;;16.23;;
2338;SDS011;1180;51.438;6.978;2023-05-10T10:08:03;23.40;;;15.10;;
2338;SDS011;1180;51.438;6.978;2023-05-10T10:10:30;16.20;;;12.60;;
2338;SDS011;1180;51.438;6.978;2023-05-10T10:12:56;19.00;;;14.20;;
2338;SDS011;1180;51.438;6.978;2023-05-10T10:15:22;17.23;;;14.77;;
2338;SDS011;1180;51.438;6.978;2023-05-10T10:17:49;24.00;;;16.13;;
2338;SDS011;1180;51.438;6.978;2023-05-10T10:20:15;16.50;;;13.67;;
2338;SDS011;1180;51.438;6.978;2023-05-10T10:22:41;18.87;;;13.97;;
2338;SDS011;1180;51.438;6.978;2023-05-10T10:25:08;16.73;;;13.23;;
2338;SDS011;1180;51.438;6.978;2023-05-10T10:27:40;15.03;;;12.10;;
2338;SDS011;1180;51.438;6.978;2023-05-10T10:35:51;16.83;;;12.90;;
2338;SDS011;1180;51.438;6.978;2023-05-10T10:38:17;18.13;;;13.90;;
2338;SDS011;1180;51.438;6.978;2023-05-10T10:40:43;18.03;;;14.10;;
2338;SDS011;1180;51.438;6.978;2023-05-10T10:43:21;20.53;;;14.67;;
2338;SDS011;1180;51.438;6.978;2023-05-10T10:48:40;19.60;;;14.33;;
2338;SDS011;1180;51.438;6.978;2023-05-10T10:51:06;15.73;;;12.97;;
2338;SDS011;1180;51.438;6.978;2023-05-10T10:53:32;20.97;;;13.27;;
2338;SDS011;1180;51.438;6.978;2023-05-10T10:56:12;18.37;;;13.10;;
2338;SDS011;1180;51.438;6.978;2023-05-10T10:58:40;16.70;;;11.57;;
2338;SDS011;1180;51.438;6.978;2023-05-10T11:01:13;17.23;;;12.40;;
2338;SDS011;1180;51.438;6.978;2023-05-10T11:04:16;14.87;;;10.80;;
2338;SDS011;1180;51.438;6.978;2023-05-10T11:06:43;15.60;;;11.13;;
2338;SDS011;1180;51.438;6.978;2023-05-10T11:09:09;13.13;;;11.23;;
2338;SDS011;1180;51.438;6.978;2023-05-10T11:11:36;16.20;;;12.00;;
2338;SDS011;1180;51.438;6.978;2023-05-10T11:14:14;13.90;;;10.93;;
2338;SDS011;1180;51.438;6.978;2023-05-10T11:16:44;15.87;;;10.13;;
2338;SDS011;1180;51.438;6.978;2023-05-10T11:19:10;13.93;;;10.07;;
2338;SDS011;1180;51.438;6.978;2023-05-10T11:24:30;16.47;;;12.87;;
2338;SDS011;1180;51.438;6.978;2023-05-10T11:26:55;14.33;;;11.50;;
2338;SDS011;1180;51.438;6.978;2023-05-10T11:29:21;14.40;;;11.47;;
2338;SDS011;1180;51.438;6.978;2023-05-10T11:31:47;14.83;;;13.13;;
2338;SDS011;1180;51.438;6.978;2023-05-10T11:34:28;18.80;;;14.03;;
2338;SDS011;1180;51.438;6.978;2023-05-10T11:36:55;19.30;;;12.50;;
2338;SDS011;1180;51.438;6.978;2023-05-10T11:39:25;16.17;;;12.10;;
2338;SDS011;1180;51.438;6.978;2023-05-10T11:41:51;14.07;;;11.07;;
2338;SDS011;1180;51.438;6.978;2023-05-10T11:44:16;14.10;;;10.33;;
2338;SDS011;1180;51.438;6.978;2023-05-10T11:46:42;16.17;;;11.87;;
2338;SDS011;1180;51.438;6.978;2023-05-10T11:49:09;18.10;;;11.87;;
2338;SDS011;1180;51.438;6.978;2023-05-10T11:51:35;14.27;;;12.77;;
2338;SDS011;1180;51.438;6.978;2023-05-10T11:54:04;14.97;;;11.87;;
2338;SDS011;1180;51.438;6.978;2023-05-10T11:56:34;15.20;;;11.67;;
2338;SDS011;1180;51.438;6.978;2023-05-10T11:59:02;14.50;;;12.90;;
2338;SDS011;1180;51.438;6.978;2023-05-10T12:01:28;15.07;;;11.73;;
2338;SDS011;1180;51.438;6.978;2023-05-10T12:03:54;13.97;;;11.37;;
2338;SDS011;1180;51.438;6.978;2023-05-10T12:06:28;12.23;;;10.87;;
2338;SDS011;1180;51.438;6.978;2023-05-10T12:08:56;12.30;;;10.17;;
2338;SDS011;1180;51.438;6.978;2023-05-10T12:11:24;11.87;;;10.60;;
2338;SDS011;1180;51.438;6.978;2023-05-10T12:13:51;14.60;;;10.43;;
2338;SDS011;1180;51.438;6.978;2023-05-10T12:16:17;11.17;;;9.60;;
2338;SDS011;1180;51.438;6.978;2023-05-10T12:18:44;10.90;;;9.80;;
2338;SDS011;1180;51.438;6.978;2023-05-10T12:21:12;10.73;;;9.27;;
2338;SDS011;1180;51.438;6.978;2023-05-10T12:23:40;12.73;;;10.00;;
2338;SDS011;1180;51.438;6.978;2023-05-10T12:26:06;10.47;;;9.43;;
2338;SDS011;1180;51.438;6.978;2023-05-10T12:28:33;10.23;;;8.47;;
2338;SDS011;1180;51.438;6.978;2023-05-10T12:30:59;11.43;;;9.93;;
2338;SDS011;1180;51.438;6.978;2023-05-10T12:33:25;10.10;;;7.93;;
2338;SDS011;1180;51.438;6.978;2023-05-10T12:35:53;7.23;;;6.20;;
2338;SDS011;1180;51.438;6.978;2023-05-10T12:38:27;7.40;;;6.70;;
2338;SDS011;1180;51.438;6.978;2023-05-10T12:41:08;8.37;;;7.60;;
2338;SDS011;1180;51.438;6.978;2023-05-10T12:43:40;8.80;;;6.20;;
2338;SDS011;1180;51.438;6.978;2023-05-10T12:48:36;6.37;;;5.33;;
2338;SDS011;1180;51.438;6.978;2023-05-10T12:51:02;5.70;;;5.20;;
2338;SDS011;1180;51.438;6.978;2023-05-10T12:53:28;5.70;;;5.17;;
2338;SDS011;1180;51.438;6.978;2023-05-10T12:55:54;5.50;;;4.70;;
2338;SDS011;1180;51.438;6.978;2023-05-10T12:58:20;5.37;;;4.07;;
2338;SDS011;1180;51.438;6.978;2023-05-10T13:00:45;6.47;;;4.50;;
2338;SDS011;1180;51.438;6.978;2023-05-10T13:03:11;6.20;;;4.20;;
2338;SDS011;1180;51.438;6.978;2023-05-10T13:05:37;4.53;;;4.10;;
2338;SDS011;1180;51.438;6.978;2023-05-10T13:08:03;4.57;;;4.07;;
2338;SDS011;1180;51.438;6.978;2023-05-10T13:10:29;5.33;;;4.80;;
2338;SDS011;1180;51.438;6.978;2023-05-10T13:12:55;4.87;;;3.90;;
2338;SDS011;1180;51.438;6.978;2023-05-10T13:15:20;4.37;;;3.97;;
2338;SDS011;1180;51.438;6.978;2023-05-10T13:17:46;4.30;;;3.93;;
2338;SDS011;1180;51.438;6.978;2023-05-10T13:20:11;6.70;;;5.37;;
2338;SDS011;1180;51.438;6.978;2023-05-10T13:22:36;5.50;;;4.80;;
2338;SDS011;1180;51.438;6.978;2023-05-10T13:25:02;5.87;;;4.40;;
2338;SDS011;1180;51.438;6.978;2023-05-10T13:27:30;5.07;;;4.43;;
2338;SDS011;1180;51.438;6.978;2023-05-10T13:29:55;5.03;;;4.33;;
2338;SDS011;1180;51.438;6.978;2023-05-10T13:32:21;5.33;;;4.83;;
2338;SDS011;1180;51.438;6.978;2023-05-10T13:34:46;6.23;;;5.63;;
2338;SDS011;1180;51.438;6.978;2023-05-10T13:37:12;5.57;;;5.07;;
2338;SDS011;1180;51.438;6.978;2023-05-10T13:39:37;6.50;;;5.17;;
2338;SDS011;1180;51.438;6.978;2023-05-10T13:42:03;5.10;;;4.60;;
2338;SDS011;1180;51.438;6.978;2023-05-10T13:44:29;4.30;;;3.90;;
2338;SDS011;1180;51.438;6.978;2023-05-10T13:46:55;5.20;;;4.70;;
2338;SDS011;1180;51.438;6.978;2023-05-10T13:49:21;5.13;;;4.63;;
2338;SDS011;1180;51.438;6.978;2023-05-10T13:51:47;5.77;;;5.10;;
2338;SDS011;1180;51.438;6.978;2023-05-10T13:54:12;5.90;;;5.40;;
2338;SDS011;1180;51.438;6.978;2023-05-10T13:56:38;6.33;;;5.23;;
2338;SDS011;1180;51.438;6.978;2023-05-10T13:59:03;5.40;;;4.90;;
2338;SDS011;1180;51.438;6.978;2023-05-10T14:01:28;4.93;;;4.43;;
2338;SDS011;1180;51.438;6.978;2023-05-10T14:03:54;5.13;;;4.53;;
2338;SDS011;1180;51.438;6.978;2023-05-10T14:06:19;8.10;;;4.47;;
2338;SDS011;1180;51.438;6.978;2023-05-10T14:08:45;5.27;;;3.53;;
2338;SDS011;1180;51.438;6.978;2023-05-10T14:11:10;4.47;;;3.73;;
2338;SDS011;1180;51.438;6.978;2023-05-10T14:13:36;6.23;;;4.00;;
2338;SDS011;1180;51.438;6.978;2023-05-10T14:16:02;3.00;;;2.73;;
2338;SDS011;1180;51.438;6.978;2023-05-10T14:18:30;4.83;;;4.03;;
2338;SDS011;1180;51.438;6.978;2023-05-10T14:20:56;10.00;;;5.17;;
2338;SDS011;1180;51.438;6.978;2023-05-10T14:23:21;5.77;;;4.60;;
2338;SDS011;1180;51.438;6.978;2023-05-10T14:25:51;7.10;;;4.03;;
2338;SDS011;1180;51.438;6.978;2023-05-10T14:28:17;5.73;;;5.23;;
2338;SDS011;1180;51.438;6.978;2023-05-10T14:30:43;4.90;;;4.50;;
2338;SDS011;1180;51.438;6.978;2023-05-10T14:33:09;6.40;;;4.57;;
2338;SDS011;1180;51.438;6.978;2023-05-10T14:35:34;4.87;;;4.47;;
2338;SDS011;1180;51.438;6.978;2023-05-10T14:38:01;4.47;;;4.07;;
2338;SDS011;1180;51.438;6.978;2023-05-10T14:40:28;5.83;;;5.33;;
2338;SDS011;1180;51.438;6.978;2023-05-10T14:42:54;6.40;;;5.83;;
2338;SDS011;1180;51.438;6.978;2023-05-10T14:45:20;6.43;;;5.30;;
2338;SDS011;1180;51.438;6.978;2023-05-10T14:47:46;5.83;;;5.23;;
2338;SDS011;1180;51.438;6.978;2023-05-10T14:50:11;5.83;;;5.23;;
2338;SDS011;1180;51.438;6.978;2023-05-10T14:52:36;12.40;;;6.60;;
2338;SDS011;1180;51.438;6.978;2023-05-10T14:55:02;6.17;;;5.37;;
2338;SDS011;1180;51.438;6.978;2023-05-10T14:57:27;10.33;;;7.30;;
2338;SDS011;1180;51.438;6.978;2023-05-10T14:59:54;6.40;;;5.80;;
2338;SDS011;1180;51.438;6.978;2023-05-10T15:02:21;8.57;;;5.90;;
2338;SDS011;1180;51.438;6.978;2023-05-10T15:04:46;8.73;;;7.90;;
2338;SDS011;1180;51.438;6.978;2023-05-10T15:07:11;7.57;;;6.83;;
2338;SDS011;1180;51.438;6.978;2023-05-10T15:09:39;7.50;;;6.60;;
2338;SDS011;1180;51.438;6.978;2023-05-10T15:12:04;8.73;;;7.30;;
2338;SDS011;1180;51.438;6.978;2023-05-10T15:14:30;8.90;;;7.10;;
2338;SDS011;1180;51.438;6.978;2023-05-10T15:16:55;7.37;;;6.57;;
2338;SDS011;1180;51.438;6.978;2023-05-10T15:19:20;9.07;;;8.17;;
2338;SDS011;1180;51.438;6.978;2023-05-10T15:21:46;8.77;;;7.90;;
2338;SDS011;1180;51.438;6.978;2023-05-10T15:24:12;9.83;;;7.70;;